Time;durP1;ratioP1;P1;durP2;ratioP2;P2;SDS_P1;SDS_P2;PMS_P1;PMS_P2;Temp;Humidity;BMP_temperature;BMP_pressure;BME280_temperature;BME280_humidity;BME280_pressure;Samples;Min_cycle;Max_cycle;Signal;HPM_P1;HPM_P2
2023/08/12 00:00:50;;;;;;;0.10;0.10;;;;;;;-144.31;100.00;46451.50;5077429;28;20031;-63
2023/08/12 00:03:15;;;;;;;0.20;0.20;;;;;;;-144.31;100.00;46431.69;5090355;28;20032;-63
2023/08/12 00:05:42;;;;;;;0.20;0.20;;;;;;;-144.31;100.00;46435.66;5091348;28;21198;-63
2023/08/12 00:08:08;;;;;;;0.20;0.20;;;;;;;-144.31;100.00;46407.88;5096065;28;20465;-63
2023/08/12 00:10:34;;;;;;;0.20;0.20;;;;;;;-144.31;100.00;46433.66;5072562;28;20043;-63
2023/08/12 00:13:00;;;;;;;0.20;0.20;;;;;;;-144.31;100.00;46411.84;5101703;28;20068;-63
2023/08/12 00:15:25;;;;;;;0.20;0.20;;;;;;;-144.31;100.00;46401.94;5080266;28;20043;-63
2023/08/12 00:17:52;;;;;;;0.20;0.20;;;;;;;-144.31;100.00;46376.16;5092443;28;20444;-63
2023/08/12 00:20:18;;;;;;;0.20;0.20;;;;;;;-144.31;100.00;46394.00;5096104;28;20066;-63
2023/08/12 00:22:43;;;;;;;0.20;0.20;;;;;;;-144.31;100.00;46394.00;5099557;28;20032;-63
2023/08/12 00:25:09;;;;;;;0.20;0.20;;;;;;;-144.31;100.00;46409.88;5084090;28;20040;-62
2023/08/12 00:27:35;;;;;;;0.20;0.20;;;;;;;-144.31;100.00;46354.34;5095144;28;20028;-64
2023/08/12 00:30:00;;;;;;;0.20;0.20;;;;;;;-144.31;100.00;46360.31;5089671;27;20038;-63
2023/08/12 00:32:26;;;;;;;0.10;0.10;;;;;;;-144.31;100.00;46312.72;5080308;28;20118;-63
2023/08/12 00:34:51;;;;;;;0.20;0.20;;;;;;;-144.31;100.00;46316.69;5074641;28;20020;-63
2023/08/12 00:37:17;;;;;;;0.10;0.10;;;;;;;-144.31;100.00;46342.47;5074250;28;20046;-62
2023/08/12 00:39:42;;;;;;;0.20;0.20;;;;;;;-144.31;100.00;46320.66;5078392;28;20110;-64
2023/08/12 00:42:08;;;;;;;0.20;0.20;;;;;;;-144.31;100.00;46320.66;5074597;28;20044;-63
2023/08/12 00:44:33;;;;;;;0.10;0.10;;;;;;;-144.31;100.00;46290.91;5079890;28;20060;-63
2023/08/12 00:46:59;;;;;;;0.20;0.20;;;;;;;-144.31;100.00;46296.84;5088598;28;20060;-63
2023/08/12 00:49:26;;;;;;;0.20;0.20;;;;;;;-144.31;100.00;46288.94;5070499;28;20036;-63
2023/08/12 00:51:52;;;;;;;0.20;0.20;;;;;;;-144.31;100.00;46177.91;5103104;28;20027;-63
2023/08/12 00:54:20;;;;;;;0.20;0.20;;;;;;;-144.31;100.00;46175.91;5087932;28;20042;-63
2023/08/12 00:56:46;;;;;;;0.20;0.20;;;;;;;-144.31;100.00;46154.09;5094085;28;20035;-63
2023/08/12 00:59:12;;;;;;;0.20;0.20;;;;;;;-144.31;100.00;46130.31;5088284;28;20035;-64
2023/08/12 01:01:42;;;;;;;0.20;0.20;;;;;;;-144.31;100.00;46152.13;5088183;28;20024;-64
2023/08/12 01:04:08;;;;;;;0.20;0.20;;;;;;;-144.31;100.00;46138.25;5096107;27;20047;-64
2023/08/12 01:06:34;;;;;;;0.20;0.20;;;;;;;-144.31;100.00;46128.34;5086930;28;20020;-64
2023/08/12 01:09:01;;;;;;;0.20;0.20;;;;;;;-144.31;100.00;46142.22;5078910;28;20337;-65
2023/08/12 01:11:39;;;;;;;0.20;0.20;;;;;;;-144.31;100.00;46076.78;5090504;28;20024;-64
2023/08/12 01:14:30;;;;;;;0.20;0.20;;;;;;;-144.31;100.00;46037.13;5089325;27;20032;-64
2023/08/12 01:17:02;;;;;;;0.20;0.20;;;;;;;-144.31;100.00;46019.28;5096298;28;20050;-64
2023/08/12 01:19:36;;;;;;;0.20;0.20;;;;;;;-144.31;100.00;46009.38;5074826;28;20063;-64
2023/08/12 01:22:04;;;;;;;0.20;0.20;;;;;;;-144.31;100.00;45936.03;5093544;28;20032;-64
2023/08/12 01:24:43;;;;;;;0.20;0.20;;;;;;;-144.31;100.00;45906.28;5079792;28;20027;-64
2023/08/12 01:27:10;;;;;;;0.20;0.20;;;;;;;-144.31;100.00;45916.19;5078324;28;20067;-64
2023/08/12 01:29:46;;;;;;;;;;;;;;;-144.31;100.00;45866.63;5083517;27;20079;-64
2023/08/12 01:32:23;;;;;;;0.20;0.20;;;;;;;-144.31;100.00;45858.72;5079066;28;20167;-64
2023/08/12 01:35:06;;;;;;;0.20;0.20;;;;;;;-144.31;100.00;45858.72;5077751;28;20035;-63
2023/08/12 01:37:33;;;;;;;0.20;0.20;;;;;;;-144.31;100.00;45827.00;5077661;28;20115;-64
2023/08/12 01:40:04;;;;;;;0.20;0.20;;;;;;;-144.31;100.00;45840.88;5086124;28;20040;-64
2023/08/12 01:42:31;;;;;;;0.20;0.20;;;;;;;-144.31;100.00;45809.16;5086566;28;20126;-64
2023/08/12 01:44:57;;;;;;;;;;;;;;;-144.31;100.00;45813.13;5082442;28;20032;-63
2023/08/12 01:47:24;;;;;;;0.20;0.20;;;;;;;-144.31;100.00;45789.31;5088704;28;19998;-63
2023/08/12 01:49:49;;;;;;;0.20;0.20;;;;;;;-144.31;100.00;45696.16;5081365;28;20138;-63
2023/08/12 01:52:15;;;;;;;0.20;0.20;;;;;;;-144.31;100.00;45652.53;5071732;28;20432;-63
2023/08/12 01:54:40;;;;;;;0.20;0.20;;;;;;;-144.31;100.00;45652.53;5077966;28;20032;-65
2023/08/12 01:57:07;;;;;;;0.20;0.20;;;;;;;-144.31;100.00;45636.69;5061858;28;20429;-65
2023/08/12 01:59:34;;;;;;;0.20;0.20;;;;;;;-144.31;100.00;45602.97;5086210;28;20031;-64
2023/08/12 02:01:59;;;;;;;0.20;0.20;;;;;;;-144.31;100.00;45612.91;5090525;28;20396;-64
2023/08/12 02:04:26;;;;;;;0.20;0.20;;;;;;;-144.31;100.00;45579.19;5077799;28;20499;-64
2023/08/12 02:06:52;;;;;;;0.20;0.20;;;;;;;-144.31;100.00;45644.63;5071457;28;20023;-64
2023/08/12 02:09:19;;;;;;;0.30;0.30;;;;;;;-144.31;100.00;45610.91;5089940;28;20119;-64
2023/08/12 02:11:44;;;;;;;0.20;0.20;;;;;;;-144.31;100.00;45606.94;5069809;28;20035;-64
2023/08/12 02:14:10;;;;;;;0.20;0.20;;;;;;;-144.31;100.00;45618.84;5085810;28;20039;-64
2023/08/12 02:16:35;;;;;;;0.20;0.20;;;;;;;-144.31;100.00;45634.69;5076098;28;20046;-65
2023/08/12 02:19:00;;;;;;;0.20;0.20;;;;;;;-144.31;100.00;45591.09;5070907;28;20039;-64
2023/08/12 02:21:26;;;;;;;0.20;0.20;;;;;;;-144.31;100.00;45608.94;5078537;28;20076;-64
2023/08/12 02:23:51;;;;;;;0.20;0.20;;;;;;;-144.31;100.00;45589.09;5081244;28;20060;-63
2023/08/12 02:26:17;;;;;;;0.20;0.20;;;;;;;-144.31;100.00;45589.09;5073371;28;20051;-64
2023/08/12 02:28:42;;;;;;;0.20;0.20;;;;;;;-144.31;100.00;45539.56;5078986;28;20036;-64
2023/08/12 02:31:08;;;;;;;0.20;0.20;;;;;;;-144.31;100.00;45438.47;5073254;28;20389;-64
2023/08/12 02:33:33;;;;;;;0.20;0.20;;;;;;;-144.31;100.00;45531.63;5076957;28;20695;-64
2023/08/12 02:35:58;;;;;;;0.20;0.20;;;;;;;-144.31;100.00;45551.44;5064882;28;20028;-64
2023/08/12 02:38:24;;;;;;;0.20;0.20;;;;;;;-144.31;100.00;45628.75;5086725;28;20036;-64
2023/08/12 02:40:50;;;;;;;0.20;0.20;;;;;;;-144.31;100.00;45690.22;5079155;28;20417;-64
2023/08/12 02:43:16;;;;;;;0.20;0.20;;;;;;;-144.31;100.00;45807.16;5073239;28;20116;-63
2023/08/12 02:45:42;;;;;;;0.20;0.20;;;;;;;-144.31;100.00;45842.84;5069662;28;20023;-63
2023/08/12 02:48:09;;;;;;;0.20;0.20;;;;;;;-144.31;100.00;45828.97;5086215;28;20024;-64
2023/08/12 02:50:35;;;;;;;0.20;0.20;;;;;;;-144.31;100.00;45807.16;5088292;28;20294;-64
2023/08/12 02:53:00;;;;;;;0.20;0.20;;;;;;;-144.31;100.00;45823.03;5090076;28;20031;-64
2023/08/12 02:55:26;;;;;;;0.20;0.20;;;;;;;-144.31;100.00;45838.88;5081931;28;20214;-64
2023/08/12 02:57:51;;;;;;;0.20;0.20;;;;;;;-144.31;100.00;45870.59;5074430;28;20032;-64
2023/08/12 03:00:17;;;;;;;0.20;0.20;;;;;;;-144.31;100.00;46043.09;5082338;28;20043;-64
2023/08/12 03:02:43;;;;;;;0.20;0.20;;;;;;;-144.31;100.00;46019.28;5071053;28;20046;-64
2023/08/12 03:05:09;;;;;;;0.20;0.20;;;;;;;-144.31;100.00;46066.88;5078957;28;20028;-63
2023/08/12 03:07:34;;;;;;;0.20;0.20;;;;;;;-144.31;100.00;46106.53;5071274;28;20047;-64
2023/08/12 03:10:00;;;;;;;0.20;0.20;;;;;;;-144.31;100.00;46199.72;5063311;28;20048;-64
2023/08/12 03:12:26;;;;;;;0.20;0.20;;;;;;;-144.31;100.00;46342.47;5089103;28;20089;-64
2023/08/12 03:14:51;;;;;;;0.20;0.20;;;;;;;-144.31;100.00;46447.53;5086800;28;20032;-64
2023/08/12 03:17:17;;;;;;;0.20;0.20;;;;;;;-144.31;100.00;46459.44;5081358;28;20393;-64
2023/08/12 03:19:42;;;;;;;0.20;0.20;;;;;;;-144.31;100.00;46534.78;5073133;28;20027;-64
2023/08/12 03:22:08;;;;;;;0.13;0.13;;;;;;;-144.31;100.00;46453.50;5078483;28;20192;-64
2023/08/12 03:24:35;;;;;;;0.20;0.20;;;;;;;-144.31;100.00;46433.66;5071067;28;20032;-64
2023/08/12 03:27:01;;;;;;;0.20;0.20;;;;;;;-144.31;100.00;46447.53;5071292;28;20036;-64
2023/08/12 03:29:28;;;;;;;0.20;0.20;;;;;;;-144.31;100.00;46447.53;5077312;28;20030;-65
2023/08/12 03:31:53;;;;;;;0.10;0.10;;;;;;;-144.31;100.00;46534.78;5086152;28;20024;-64
2023/08/12 03:34:20;;;;;;;0.20;0.20;;;;;;;-144.31;100.00;46554.59;5083564;28;20103;-64
2023/08/12 03:36:48;;;;;;;0.20;0.20;;;;;;;-144.31;100.00;46560.56;5080185;28;20424;-64
2023/08/12 03:39:17;;;;;;;0.10;0.10;;;;;;;-144.31;100.00;46540.72;5073537;28;20039;-64
2023/08/12 03:41:43;;;;;;;0.10;0.10;;;;;;;-144.31;100.00;46544.69;5077456;28;20039;-64
2023/08/12 03:44:08;;;;;;;0.20;0.20;;;;;;;-144.31;100.00;46574.44;5087114;28;20031;-64
2023/08/12 03:46:34;;;;;;;0.20;0.20;;;;;;;-144.31;100.00;46574.44;5078600;28;20380;-64
2023/08/12 03:49:00;;;;;;;0.10;0.10;;;;;;;-144.31;100.00;46594.25;5068525;28;20032;-64
2023/08/12 03:51:26;;;;;;;0.20;0.20;;;;;;;-144.31;100.00;46572.44;5069263;28;20109;-63
2023/08/12 03:53:51;;;;;;;0.20;0.20;;;;;;;-144.31;100.00;46594.25;5077726;28;20120;-64
2023/08/12 03:56:17;;;;;;;0.10;0.10;;;;;;;-144.31;100.00;46574.44;5070959;28;20123;-64
2023/08/12 03:58:43;;;;;;;0.10;0.10;;;;;;;-144.31;100.00;46604.19;5065580;28;20127;-63
2023/08/12 04:01:08;;;;;;;0.20;0.20;;;;;;;-144.31;100.00;46574.44;5076965;28;20494;-65
2023/08/12 04:03:34;;;;;;;0.20;0.20;;;;;;;-144.31;100.00;46574.44;5053837;28;20094;-64
2023/08/12 04:05:59;;;;;;;0.10;0.10;;;;;;;-144.31;100.00;46572.44;5079722;28;20291;-64
2023/08/12 04:08:25;;;;;;;0.20;0.20;;;;;;;-144.31;100.00;46574.44;5052939;28;20104;-63
2023/08/12 04:10:51;;;;;;;0.20;0.20;;;;;;;-144.31;100.00;46602.19;5081701;28;20177;-63
2023/08/12 04:13:17;;;;;;;0.20;0.20;;;;;;;-144.31;100.00;46574.44;5089067;28;20123;-64
2023/08/12 04:15:48;;;;;;;0.20;0.20;;;;;;;-144.31;100.00;46574.44;5053377;28;20340;-63
2023/08/12 04:18:13;;;;;;;0.10;0.10;;;;;;;-144.31;100.00;46580.38;5075627;28;20050;-64
2023/08/12 04:20:39;;;;;;;0.20;0.20;;;;;;;-144.31;100.00;46651.78;5086080;28;20024;-63
2023/08/12 04:23:05;;;;;;;0.10;0.10;;;;;;;-144.31;100.00;46701.34;5090514;28;20059;-63
2023/08/12 04:25:30;;;;;;;0.20;0.20;;;;;;;-144.31;100.00;46786.59;5062053;28;20133;-63
2023/08/12 04:27:56;;;;;;;0.20;0.20;;;;;;;-144.31;100.00;46800.47;5074723;28;20074;-64
2023/08/12 04:30:21;;;;;;;0.10;0.10;;;;;;;-144.31;100.00;46772.72;5075345;28;20044;-63
2023/08/12 04:32:47;;;;;;;0.20;0.20;;;;;;;-144.31;100.00;46673.56;5053869;28;20384;-63
2023/08/12 04:35:13;;;;;;;0.20;0.20;;;;;;;-144.31;100.00;46713.25;5076715;27;20043;-63
2023/08/12 04:37:38;;;;;;;0.20;0.20;;;;;;;-144.31;100.00;46645.81;5095820;28;20035;-63
2023/08/12 04:40:09;;;;;;;0.20;0.20;;;;;;;-144.31;100.00;46639.88;5074033;28;20491;-63
2023/08/12 04:42:34;;;;;;;0.10;0.10;;;;;;;-144.31;100.00;46570.47;5075955;28;20069;-63
2023/08/12 04:45:00;;;;;;;0.20;0.20;;;;;;;-144.31;100.00;46409.88;5089093;28;20044;-63
2023/08/12 04:47:28;;;;;;;0.20;0.20;;;;;;;-144.31;100.00;46417.81;5080632;28;20024;-63
2023/08/12 04:49:54;;;;;;;0.20;0.20;;;;;;;-144.31;100.00;46451.50;5079644;28;20035;-63
2023/08/12 04:52:20;;;;;;;0.10;0.10;;;;;;;-144.31;100.00;46548.66;5074425;28;20027;-63
2023/08/12 04:54:46;;;;;;;0.20;0.20;;;;;;;-144.31;100.00;46578.41;5076295;28;20043;-64
2023/08/12 04:57:12;;;;;;;0.10;0.10;;;;;;;-144.31;100.00;46653.75;5070450;28;20024;-63
2023/08/12 04:59:38;;;;;;;0.20;0.20;;;;;;;-144.31;100.00;46655.72;5074447;28;20266;-63
2023/08/12 05:02:04;;;;;;;0.10;0.10;;;;;;;-144.31;100.00;46709.28;5096320;28;20089;-63
2023/08/12 05:04:29;;;;;;;0.10;0.10;;;;;;;-144.31;100.00;46852.03;5073661;28;20035;-63
2023/08/12 05:06:55;;;;;;;0.20;0.20;;;;;;;-144.31;100.00;46945.25;5085125;28;20100;-64
2023/08/12 05:09:21;;;;;;;0.20;0.20;;;;;;;-144.31;100.00;47086.03;5077012;28;20467;-63
2023/08/12 05:11:46;;;;;;;0.20;0.20;;;;;;;-144.31;100.00;47137.59;5072489;28;20028;-64
2023/08/12 05:14:12;;;;;;;0.10;0.10;;;;;;;-144.31;100.00;47046.38;5097109;28;20399;-63
2023/08/12 05:16:37;;;;;;;0.10;0.10;;;;;;;-144.31;100.00;46959.13;5062079;28;20032;-63
2023/08/12 05:19:03;;;;;;;0.10;0.10;;;;;;;-144.31;100.00;46955.16;5081382;28;20502;-63
2023/08/12 05:21:28;;;;;;;0.10;0.10;;;;;;;-144.31;100.00;46867.91;5088474;27;20075;-63
2023/08/12 05:23:54;;;;;;;0.10;0.10;;;;;;;-144.31;100.00;46832.22;5090447;28;20062;-63
2023/08/12 05:26:20;;;;;;;0.20;0.20;;;;;;;-144.31;100.00;46854.03;5089804;28;20058;-63
2023/08/12 05:28:46;;;;;;;0.17;0.17;;;;;;;-144.31;100.00;46808.41;5088031;28;20035;-63
2023/08/12 05:31:11;;;;;;;0.10;0.10;;;;;;;-144.31;100.00;46820.31;5095659;27;20630;-64
2023/08/12 05:33:37;;;;;;;0.15;0.15;;;;;;;-144.31;100.00;46931.34;5090232;28;20036;-64
2023/08/12 05:36:02;;;;;;;0.20;0.20;;;;;;;-144.31;100.00;46949.22;5087945;27;20991;-63
2023/08/12 05:38:28;;;;;;;0.10;0.10;;;;;;;-144.31;100.00;47052.31;5095269;27;20655;-63
2023/08/12 05:40:53;;;;;;;0.10;0.10;;;;;;;-144.31;100.00;47109.84;5073132;28;20038;-64
2023/08/12 05:43:19;;;;;;;0.15;0.15;;;;;;;-144.31;100.00;46947.22;5074364;28;20046;-64
2023/08/12 05:45:44;;;;;;;0.10;0.10;;;;;;;-144.31;100.00;46832.22;5073644;28;20031;-63
2023/08/12 05:48:09;;;;;;;0.10;0.10;;;;;;;-144.31;100.00;46782.63;5091295;28;20807;-64
2023/08/12 05:50:35;;;;;;;0.10;0.10;;;;;;;-144.31;100.00;46725.13;5096359;28;20024;-64
2023/08/12 05:53:00;;;;;;;0.10;0.10;;;;;;;-144.31;100.00;46697.38;5089386;28;20039;-63
2023/08/12 05:55:26;;;;;;;0.10;0.10;;;;;;;-144.31;100.00;46679.53;5095761;27;20281;-63
2023/08/12 05:57:51;;;;;;;0.17;0.17;;;;;;;-144.31;100.00;46667.63;5089062;28;20224;-63
2023/08/12 06:00:16;;;;;;;0.10;0.10;;;;;;;-144.31;100.00;46629.97;5087464;28;20483;-63
2023/08/12 06:02:42;;;;;;;0.20;0.20;;;;;;;-144.31;100.00;46671.59;5095435;28;20360;-64
2023/08/12 06:05:08;;;;;;;0.10;0.10;;;;;;;-144.31;100.00;46848.06;5069926;28;20028;-63
2023/08/12 06:07:33;;;;;;;0.10;0.10;;;;;;;-144.31;100.00;46659.69;5092595;28;20039;-63
2023/08/12 06:10:00;;;;;;;0.10;0.10;;;;;;;-144.31;100.00;46562.53;5072094;28;20050;-63
2023/08/12 06:12:25;;;;;;;0.10;0.10;;;;;;;-144.31;100.00;46552.63;5079724;28;20469;-64
2023/08/12 06:14:51;;;;;;;0.10;0.10;;;;;;;-144.31;100.00;46635.91;5092618;28;20028;-63
2023/08/12 06:17:16;;;;;;;0.10;0.10;;;;;;;-144.31;100.00;46441.59;5088989;28;20043;-63
2023/08/12 06:19:41;;;;;;;0.10;0.10;;;;;;;-144.31;100.00;46487.19;5091580;28;20032;-64
2023/08/12 06:22:07;;;;;;;0.10;0.10;;;;;;;-144.31;100.00;46469.34;5086835;28;20063;-63
2023/08/12 06:24:32;;;;;;;0.10;0.10;;;;;;;-144.31;100.00;46449.53;5092357;27;20594;-64
2023/08/12 06:26:58;;;;;;;0.10;0.10;;;;;;;-144.31;100.00;46588.31;5097079;28;20511;-64
2023/08/12 06:29:23;;;;;;;0.10;0.10;;;;;;;-144.31;100.00;46649.78;5088673;28;20085;-63
2023/08/12 06:31:49;;;;;;;0.15;0.15;;;;;;;-144.31;100.00;46457.44;5080190;28;20072;-63
2023/08/12 06:34:14;;;;;;;0.10;0.10;;;;;;;-144.31;100.00;46534.78;5079929;28;20030;-63
2023/08/12 06:36:39;;;;;;;0.20;0.20;;;;;;;-144.31;100.00;46463.41;5087652;27;20362;-63
2023/08/12 06:39:05;;;;;;;0.20;0.20;;;;;;;-144.31;100.00;46481.25;5077287;28;20035;-63
2023/08/12 06:41:30;;;;;;;0.10;0.10;;;;;;;-144.31;100.00;46415.81;5089235;28;20066;-63
2023/08/12 06:43:56;;;;;;;0.10;0.10;;;;;;;-144.31;100.00;46364.25;5077148;28;20039;-63
2023/08/12 06:46:21;;;;;;;0.20;0.20;;;;;;;-144.31;100.00;46330.56;5086702;27;20215;-63
2023/08/12 06:48:46;;;;;;;0.10;0.10;;;;;;;-144.31;100.00;46396.00;5090331;27;20115;-63
2023/08/12 06:51:12;;;;;;;0.10;0.10;;;;;;;-144.31;100.00;46459.44;5074999;28;20131;-63
2023/08/12 06:53:39;;;;;;;0.20;0.20;;;;;;;-144.31;100.00;46399.94;5078842;28;20036;-63
2023/08/12 06:56:04;;;;;;;0.10;0.10;;;;;;;-144.31;100.00;46394.00;5089942;28;20122;-63
2023/08/12 06:58:30;;;;;;;0.10;0.10;;;;;;;-144.31;100.00;46411.84;5087793;27;20044;-63
2023/08/12 07:00:56;;;;;;;0.10;0.10;;;;;;;-144.31;100.00;46334.53;5071115;28;20032;-63
2023/08/12 07:03:22;;;;;;;0.10;0.10;;;;;;;-144.31;100.00;46316.69;5093379;27;20044;-64
2023/08/12 07:05:48;;;;;;;0.10;0.10;;;;;;;-144.31;100.00;46294.88;5085505;28;20489;-64
2023/08/12 07:08:13;;;;;;;0.10;0.10;;;;;;;-144.31;100.00;46183.84;5078116;28;20038;-64
2023/08/12 07:10:40;;;;;;;0.10;0.10;;;;;;;-144.31;100.00;45985.59;5087971;28;20085;-64
2023/08/12 07:13:05;;;;;;;0.10;0.10;;;;;;;-144.31;100.00;45884.47;5072739;28;20042;-64
2023/08/12 07:15:31;;;;;;;0.10;0.10;;;;;;;-144.31;100.00;45896.38;5093505;27;20039;-64
2023/08/12 07:17:57;;;;;;;0.10;0.10;;;;;;;-144.31;100.00;45682.28;5087443;28;20674;-61
2023/08/12 07:20:24;;;;;;;0.10;0.10;;;;;;;-144.31;100.00;45616.84;5078831;28;20035;-64
2023/08/12 07:22:49;;;;;;;0.10;0.10;;;;;;;-144.31;100.00;45422.59;5087498;28;20035;-64
2023/08/12 07:25:15;;;;;;;0.10;0.10;;;;;;;-144.31;100.00;45555.41;5096977;28;20088;-64
2023/08/12 07:27:41;;;;;;;0.10;0.10;;;;;;;-144.31;100.00;45846.81;5096541;28;20354;-64
2023/08/12 07:30:07;;;;;;;0.10;0.10;;;;;;;-144.31;98.62;45672.38;5090065;28;20067;-64
2023/08/12 07:32:33;;;;;;;0.10;0.10;;;;;;;-144.31;97.57;45630.75;5081660;28;20522;-64
2023/08/12 07:34:58;;;;;;;0.10;0.10;;;;;;;-144.31;100.00;45825.00;5084417;28;20024;-63
2023/08/12 07:37:24;;;;;;;0.10;0.10;;;;;;;-144.31;97.96;45698.13;5091053;28;20024;-64
2023/08/12 07:39:49;;;;;;;0.10;0.10;;;;;;;-144.31;97.23;45285.81;5077001;28;20469;-61
2023/08/12 07:42:14;;;;;;;0.10;0.10;;;;;;;-144.31;93.91;45519.72;5071939;28;20481;-63
2023/08/12 07:44:40;;;;;;;0.10;0.10;;;;;;;-144.31;93.62;45127.25;5095737;28;20028;-64
2023/08/12 07:47:05;;;;;;;0.10;0.10;;;;;;;-144.31;93.34;45164.91;5065919;28;20055;-64
2023/08/12 07:49:31;;;;;;;0.10;0.10;;;;;;;-144.31;92.09;45499.91;5088580;28;20089;-64
2023/08/12 07:51:56;;;;;;;0.10;0.10;;;;;;;-144.31;92.85;45412.69;5097748;28;20050;-61
2023/08/12 07:54:21;;;;;;;0.10;0.10;;;;;;;-144.31;91.85;45723.91;5088730;28;20136;-62
2023/08/12 07:56:47;;;;;;;0.00;0.00;;;;;;;-144.31;92.11;45698.13;5093496;28;20039;-62
2023/08/12 07:59:16;;;;;;;0.03;0.03;;;;;;;-144.31;92.54;45769.50;5087167;28;20532;-63
2023/08/12 08:01:41;;;;;;;0.00;0.00;;;;;;;-144.31;91.71;45789.31;5073846;28;20059;-63
2023/08/12 08:04:07;;;;;;;0.10;0.10;;;;;;;-144.31;89.99;45797.25;5095027;28;20109;-62
2023/08/12 08:06:32;;;;;;;0.10;0.10;;;;;;;-144.31;88.30;46132.28;5086495;28;20061;-63
2023/08/12 08:09:00;;;;;;;0.10;0.10;;;;;;;-144.31;87.03;46249.28;5093155;28;20024;-62
2023/08/12 08:11:26;;;;;;;0.00;0.00;;;;;;;-144.31;86.92;46237.38;5096065;27;20028;-63
2023/08/12 08:13:51;;;;;;;0.00;0.00;;;;;;;-144.31;85.03;46913.50;5091398;28;20035;-63
2023/08/12 08:16:17;;;;;;;0.00;0.00;;;;;;;-144.31;80.22;45836.91;5098110;28;20032;-63
2023/08/12 08:18:42;;;;;;;0.00;0.00;;;;;;;-144.31;78.19;45501.88;5088887;27;20032;-63
2023/08/12 08:21:07;;;;;;;0.00;0.00;;;;;;;-144.31;77.57;45495.94;5097270;27;20036;-64
2023/08/12 08:23:33;;;;;;;0.00;0.00;;;;;;;-144.31;79.67;45896.38;5098452;28;20032;-63
2023/08/12 08:25:58;;;;;;;0.00;0.00;;;;;;;-144.31;78.28;45610.91;5093292;28;20380;-63
2023/08/12 08:28:23;;;;;;;0.00;0.00;;;;;;;-144.31;78.68;45646.59;5098817;27;20385;-63
2023/08/12 08:30:49;;;;;;;0.00;0.00;;;;;;;-144.31;77.24;45499.91;5090773;28;20092;-62
2023/08/12 08:33:14;;;;;;;0.00;0.00;;;;;;;-144.31;75.36;45392.88;5076546;28;20043;-62
2023/08/12 08:35:40;;;;;;;0.00;0.00;;;;;;;-144.31;73.59;45143.13;5096702;28;20044;-63
2023/08/12 08:38:05;;;;;;;0.00;0.00;;;;;;;-144.31;74.46;45361.16;5087791;28;20038;-63
2023/08/12 08:40:31;;;;;;;0.00;0.00;;;;;;;-144.31;71.00;44782.38;5094295;27;20036;-62
2023/08/12 08:43:01;;;;;;;0.00;0.00;;;;;;;-144.31;70.86;44810.13;5079952;28;20027;-65
2023/08/12 08:45:28;;;;;;;0.00;0.00;;;;;;;-144.31;69.32;44613.94;5090908;27;20432;-62
2023/08/12 08:47:54;;;;;;;0.00;0.00;;;;;;;-144.31;67.24;44162.09;5095471;27;20457;-63
2023/08/12 08:50:21;;;;;;;0.00;0.00;;;;;;;-144.31;65.41;43856.94;5090083;28;20028;-63
2023/08/12 08:52:47;;;;;;;;;;;;;;;-144.31;63.88;43555.78;5097336;28;20039;-63
2023/08/12 08:55:14;;;;;;;0.00;0.00;;;;;;;-144.31;63.88;43555.78;5092261;28;20353;-63
2023/08/12 08:57:41;;;;;;;0.00;0.00;;;;;;;-144.31;64.18;44154.19;5091981;28;20036;-63
2023/08/12 09:00:10;;;;;;;0.00;0.00;;;;;;;-144.31;64.18;44154.19;5101738;28;20056;-63
2023/08/12 09:02:36;;;;;;;0.00;0.00;;;;;;;-144.31;66.20;44538.63;5092442;27;20393;-63
2023/08/12 09:05:03;;;;;;;0.00;0.00;;;;;;;-144.31;64.02;43866.84;5107222;27;20040;-64
2023/08/12 09:07:29;;;;;;;0.00;0.00;;;;;;;-144.31;63.26;43845.06;5097268;28;20047;-64
2023/08/12 09:09:56;;;;;;;;;;;;;;;-144.31;65.16;44451.44;5105612;27;20019;-63
2023/08/12 09:12:22;;;;;;;0.00;0.00;;;;;;;-144.31;66.39;44732.84;5098588;28;19927;-63
2023/08/12 09:14:48;;;;;;;;;;;;;;;-144.31;66.39;44732.84;5089303;28;20036;-63
2023/08/12 09:17:14;;;;;;;0.00;0.00;;;;;;;-144.31;66.27;44778.44;5098330;28;19915;-63
2023/08/12 09:19:40;;;;;;;0.00;0.00;;;;;;;-144.31;64.68;44211.66;5090381;27;20028;-65
2023/08/12 09:22:09;;;;;;;0.00;0.00;;;;;;;-144.31;64.68;44211.66;5088956;28;20039;-64
2023/08/12 09:24:34;;;;;;;0.00;0.00;;;;;;;-144.31;61.30;43403.22;5097375;28;20562;-64
2023/08/12 09:27:00;;;;;;;0.00;0.00;;;;;;;-144.31;60.66;43173.41;5082461;28;20035;-64
2023/08/12 09:29:34;;;;;;;0.00;0.00;;;;;;;-144.31;63.55;44314.69;5098030;27;20024;-64
2023/08/12 09:32:13;;;;;;;0.00;0.00;;;;;;;-144.31;62.99;43815.34;5090854;28;20057;-63
2023/08/12 09:34:49;;;;;;;0.00;0.00;;;;;;;-144.31;62.99;43815.34;5050946;28;20474;-63
2023/08/12 09:37:15;;;;;;;0.00;0.00;;;;;;;-144.31;59.73;42804.94;5085931;28;20042;-64
2023/08/12 09:39:41;;;;;;;0.00;0.00;;;;;;;-144.31;59.73;42804.94;5072646;28;20028;-63
2023/08/12 09:42:07;;;;;;;0.00;0.00;;;;;;;-144.31;59.73;42804.94;5076029;28;20032;-63
2023/08/12 09:44:37;;;;;;;0.00;0.00;;;;;;;-144.31;62.46;44102.66;5086924;28;20035;-64
2023/08/12 09:47:03;;;;;;;0.00;0.00;;;;;;;-144.31;62.92;44372.16;5056067;28;20312;-64
2023/08/12 09:49:29;;;;;;;0.00;0.00;;;;;;;-144.31;62.95;44072.94;5073355;28;20448;-64
2023/08/12 09:51:55;;;;;;;0.00;0.00;;;;;;;-144.31;61.81;44011.50;5079913;28;20043;-64
2023/08/12 09:54:21;;;;;;;0.00;0.00;;;;;;;-144.31;60.26;43351.72;5073342;28;20054;-64
2023/08/12 09:56:56;;;;;;;0.00;0.00;;;;;;;-144.31;60.26;43351.72;5066467;28;20478;-63
2023/08/12 09:59:22;;;;;;;0.00;0.00;;;;;;;-144.31;60.26;43351.72;5070256;28;20071;-63
2023/08/12 10:01:53;;;;;;;0.00;0.00;;;;;;;-144.31;60.26;43351.72;5076185;28;20040;-63
2023/08/12 10:04:22;;;;;;;0.00;0.00;;;;;;;-144.31;60.26;43351.72;5061227;28;20074;-63
2023/08/12 10:06:48;;;;;;;0.00;0.00;;;;;;;-144.31;59.02;43123.88;5050555;28;20037;-63
2023/08/12 10:09:16;;;;;;;0.00;0.00;;;;;;;-144.31;59.94;43322.00;5062569;28;20052;-62
2023/08/12 10:11:45;;;;;;;0.00;0.00;;;;;;;-144.31;59.94;43322.00;5057803;28;20037;-63
2023/08/12 10:14:12;;;;;;;0.00;0.00;;;;;;;-144.31;58.02;42620.72;5057827;28;20109;-63
2023/08/12 10:16:39;;;;;;;0.00;0.00;;;;;;;-144.31;58.02;42620.72;5063014;28;20036;-62
2023/08/12 10:19:05;;;;;;;;;;;;;;;-144.31;58.02;42620.72;5053576;28;20505;-62
2023/08/12 10:21:31;;;;;;;0.00;0.00;;;;;;;-144.31;58.28;42755.44;5061121;28;21019;-62
2023/08/12 10:23:58;;;;;;;0.00;0.00;;;;;;;-144.31;57.07;42309.75;5051641;28;20028;-62
2023/08/12 10:26:27;;;;;;;0.00;0.00;;;;;;;-144.31;55.14;40935.41;5054346;28;20033;-62
2023/08/12 10:28:54;;;;;;;0.00;0.00;;;;;;;-144.31;55.14;40935.41;5060684;28;20036;-63
2023/08/12 10:31:20;;;;;;;0.00;0.00;;;;;;;-144.31;55.14;40935.41;5050053;28;20550;-63
2023/08/12 10:33:49;;;;;;;0.00;0.00;;;;;;;-144.31;55.14;40935.41;5057334;28;20033;-63
2023/08/12 10:36:15;;;;;;;0.00;0.00;;;;;;;-144.31;55.14;40935.41;5053597;28;20040;-63
2023/08/12 10:38:43;;;;;;;0.00;0.00;;;;;;;-144.31;58.29;43353.69;5051437;28;20020;-63
2023/08/12 10:41:15;;;;;;;0.00;0.00;;;;;;;-144.31;58.29;43353.69;5060865;28;20112;-63
2023/08/12 10:44:01;;;;;;;0.00;0.00;;;;;;;-144.31;58.54;43587.50;5054213;28;20117;-63
2023/08/12 10:46:37;;;;;;;0.00;0.00;;;;;;;-144.31;61.16;43993.66;5050491;28;20064;-63
2023/08/12 10:49:10;;;;;;;0.00;0.00;;;;;;;-144.31;61.16;43993.66;5052515;28;20423;-63
2023/08/12 10:51:54;;;;;;;0.00;0.00;;;;;;;-144.31;61.16;43993.66;5053623;28;20430;-63
2023/08/12 10:54:31;;;;;;;0.00;0.00;;;;;;;-144.31;61.16;43993.66;5061161;28;20056;-63
2023/08/12 10:57:02;;;;;;;0.00;0.00;;;;;;;-144.31;61.16;43993.66;5053441;28;20041;-63
2023/08/12 10:59:46;;;;;;;0.00;0.00;;;;;;;-144.31;61.16;43993.66;5049211;28;20041;-63
2023/08/12 11:02:27;;;;;;;0.00;0.00;;;;;;;-144.31;53.88;41856.22;5051531;28;20036;-63
2023/08/12 11:05:07;;;;;;;0.00;0.00;;;;;;;-144.31;55.06;42575.16;5049432;28;20123;-63
2023/08/12 11:08:05;;;;;;;0.00;0.00;;;;;;;-144.31;57.07;43082.28;5051946;28;20390;-62
2023/08/12 11:10:33;;;;;;;0.00;0.00;;;;;;;-144.31;56.23;42941.63;5058098;28;20033;-62
2023/08/12 11:12:59;;;;;;;0.00;0.00;;;;;;;-144.31;56.22;42872.31;5054257;28;20033;-63